Time;durP1;ratioP1;P1;durP2;ratioP2;P2;SDS_P1;SDS_P2;PMS_P1;PMS_P2;Temp;Humidity;BMP_temperature;BMP_pressure;BME280_temperature;BME280_humidity;BME280_pressure;Samples;Min_cycle;Max_cycle;Signal;HPM_P1;HPM_P2
2022/05/25 00:00:38;;;;;;;4.32;3.90;;;;;;;11.31;100.00;101149.75;5263064;28;20021;-68
2022/05/25 00:03:09;;;;;;;5.18;3.75;;;;;;;11.28;100.00;101155.25;5262577;28;20976;-68
2022/05/25 00:05:41;;;;;;;4.63;3.85;;;;;;;11.28;100.00;101150.84;5261540;28;20436;-68
2022/05/25 00:08:13;;;;;;;7.10;3.95;;;;;;;11.26;100.00;101157.19;5264687;28;20029;-68
2022/05/25 00:10:44;;;;;;;6.95;3.97;;;;;;;11.20;100.00;101158.50;5262589;28;20028;-69
2022/05/25 00:13:16;;;;;;;5.63;4.20;;;;;;;11.25;100.00;101156.34;5264742;28;20023;-68
2022/05/25 00:15:47;;;;;;;5.40;4.68;;;;;;;11.19;100.00;101144.56;5264923;28;20037;-68
2022/05/25 00:18:18;;;;;;;5.57;4.78;;;;;;;11.16;100.00;101152.69;5266144;28;20032;-68
2022/05/25 00:20:50;;;;;;;7.05;4.32;;;;;;;11.13;100.00;101155.56;5266599;28;20082;-68
2022/05/25 00:23:21;;;;;;;7.15;5.07;;;;;;;11.15;100.00;101161.50;5257523;28;20036;-69
2022/05/25 00:25:53;;;;;;;7.35;5.15;;;;;;;11.13;100.00;101157.34;5267360;28;20104;-68
2022/05/25 00:28:25;;;;;;;7.03;4.93;;;;;;;11.11;100.00;101154.84;5266807;28;20024;-68
2022/05/25 00:30:57;;;;;;;6.55;5.38;;;;;;;11.10;100.00;101155.81;5269346;28;20032;-68
2022/05/25 00:33:29;;;;;;;6.35;5.05;;;;;;;11.12;100.00;101164.38;5267532;28;20028;-68
2022/05/25 00:36:01;;;;;;;6.55;5.32;;;;;;;11.10;100.00;101165.47;5266778;28;20071;-68
2022/05/25 00:38:32;;;;;;;6.68;5.72;;;;;;;11.07;100.00;101157.88;5268702;28;20427;-68
2022/05/25 00:41:03;;;;;;;7.50;5.80;;;;;;;11.03;100.00;101159.06;5266054;28;20017;-68
2022/05/25 00:43:35;;;;;;;10.10;6.05;;;;;;;11.05;100.00;101157.97;5267633;28;20032;-68
2022/05/25 00:46:10;;;;;;;7.38;5.90;;;;;;;11.06;100.00;101170.16;5268011;28;20046;-68
2022/05/25 00:48:48;;;;;;;9.30;6.38;;;;;;;11.06;100.00;101164.03;5267352;28;20040;-68
2022/05/25 00:51:25;;;;;;;6.03;5.43;;;;;;;11.03;100.00;101172.19;5263016;28;20032;-68
2022/05/25 00:54:01;;;;;;;6.72;6.03;;;;;;;11.06;100.00;101172.78;5265107;28;20057;-68
2022/05/25 00:56:35;;;;;;;8.50;5.93;;;;;;;10.95;100.00;101175.44;5267948;28;20484;-68
2022/05/25 00:59:14;;;;;;;8.23;5.88;;;;;;;11.02;100.00;101175.75;5273793;28;20492;-68
2022/05/25 01:01:45;;;;;;;8.10;5.82;;;;;;;10.93;100.00;101177.31;5268340;28;20017;-68
2022/05/25 01:04:17;;;;;;;7.45;5.82;;;;;;;10.92;100.00;101181.75;5267430;28;20510;-68
2022/05/25 01:07:15;;;;;;;6.97;6.00;;;;;;;10.91;100.00;101190.56;5266739;28;20127;-68
2022/05/25 01:10:05;;;;;;;7.57;6.05;;;;;;;11.04;100.00;101185.16;5263516;28;20033;-69
2022/05/25 01:13:11;;;;;;;6.57;5.55;;;;;;;11.12;100.00;101187.97;5263851;28;20132;-69
2022/05/25 01:15:45;;;;;;;7.03;5.95;;;;;;;10.88;100.00;101190.81;5267839;28;20500;-68
2022/05/25 01:18:34;;;;;;;8.20;6.15;;;;;;;10.90;100.00;101183.63;5266960;28;20029;-68
2022/05/25 01:21:14;;;;;;;6.13;5.53;;;;;;;10.83;100.00;101185.09;5265127;28;20036;-68
2022/05/25 01:23:56;;;;;;;6.68;5.93;;;;;;;10.87;100.00;101188.28;5265806;28;20038;-68
2022/05/25 01:26:46;;;;;;;7.57;6.22;;;;;;;10.85;100.00;101187.59;5256514;28;20101;-68
2022/05/25 01:29:51;;;;;;;10.43;6.38;;;;;;;10.96;100.00;101191.03;5267169;28;20124;-68
2022/05/25 01:32:41;;;;;;;8.38;6.57;;;;;;;10.81;100.00;101194.06;5267678;28;20036;-68
2022/05/25 01:35:29;;;;;;;8.55;6.45;;;;;;;10.92;100.00;101188.78;5265850;28;20109;-68
2022/05/25 01:38:14;;;;;;;7.70;6.57;;;;;;;10.79;100.00;101190.72;5267083;28;20066;-68
2022/05/25 01:40:54;;;;;;;8.18;6.47;;;;;;;10.71;100.00;101196.56;5267173;28;20115;-68
2022/05/25 01:43:42;;;;;;;7.07;6.38;;;;;;;10.79;100.00;101198.56;5264775;28;20382;-68
2022/05/25 01:46:22;;;;;;;9.75;6.40;;;;;;;10.70;100.00;101192.28;5267327;28;20402;-68
2022/05/25 01:48:55;;;;;;;7.38;6.60;;;;;;;10.62;100.00;101200.75;5265232;28;20028;-68
2022/05/25 01:52:08;;;;;;;7.60;6.25;;;;;;;10.88;100.00;101201.31;5267285;28;20046;-68
2022/05/25 01:54:49;;;;;;;8.20;6.50;;;;;;;10.68;100.00;101204.66;5222995;28;20403;-68
2022/05/25 01:57:27;;;;;;;7.78;6.80;;;;;;;10.58;100.00;101193.25;5265306;28;20091;-68
2022/05/25 01:59:58;;;;;;;8.70;6.63;;;;;;;10.53;100.00;101208.50;5264761;28;20059;-68
2022/05/25 02:05:21;;;;;;;9.88;6.85;;;;;;;10.50;100.00;101195.66;5266203;28;20033;-68
2022/05/25 02:08:04;;;;;;;;;;;;;;;10.96;100.00;101206.75;5265524;28;20425;-68
2022/05/25 02:10:54;;;;;;;7.78;6.93;;;;;;;10.68;100.00;101197.66;5265741;28;19912;-68
2022/05/25 02:13:30;;;;;;;8.75;6.63;;;;;;;10.47;100.00;101204.59;5266121;28;20391;-68
2022/05/25 02:16:14;;;;;;;7.43;6.60;;;;;;;10.48;100.00;101206.25;5264108;28;20028;-68
2022/05/25 02:19:08;;;;;;;8.77;6.80;;;;;;;10.51;100.00;101205.19;5267151;28;20020;-68
2022/05/25 02:21:43;;;;;;;;;;;;;;;10.87;100.00;101204.88;5265938;28;20028;-68
2022/05/25 02:24:25;;;;;;;7.47;6.68;;;;;;;10.42;100.00;101207.56;5265118;28;19913;-68
2022/05/25 02:27:07;;;;;;;9.13;6.97;;;;;;;10.48;100.00;101208.88;5268260;28;20025;-68
2022/05/25 02:29:51;;;;;;;11.50;7.20;;;;;;;10.44;100.00;101210.88;5266103;28;20025;-69
2022/05/25 02:32:32;;;;;;;8.45;6.95;;;;;;;10.38;100.00;101213.16;5266783;28;20401;-68
2022/05/25 02:35:05;;;;;;;8.52;6.38;;;;;;;10.26;100.00;101219.34;5265462;28;20378;-68
2022/05/25 02:37:37;;;;;;;8.40;7.05;;;;;;;10.22;100.00;101216.94;5265860;28;20107;-68
2022/05/25 02:40:11;;;;;;;6.97;6.38;;;;;;;10.23;100.00;101215.16;5264117;28;20036;-68
2022/05/25 02:42:42;;;;;;;8.18;7.05;;;;;;;10.16;100.00;101208.72;5264308;28;20036;-68
2022/05/25 02:45:14;;;;;;;9.35;6.43;;;;;;;10.20;100.00;101228.50;5264069;28;20112;-68
2022/05/25 02:47:45;;;;;;;7.72;6.13;;;;;;;10.18;100.00;101222.53;5264786;28;20020;-68
2022/05/25 02:50:16;;;;;;;8.63;6.10;;;;;;;10.19;100.00;101224.19;5261619;28;20028;-68
2022/05/25 02:52:48;;;;;;;8.05;5.90;;;;;;;10.15;100.00;101233.22;5267457;28;20024;-68
2022/05/25 02:55:19;;;;;;;9.30;6.60;;;;;;;10.17;100.00;101229.53;5267139;28;20020;-68
2022/05/25 02:57:51;;;;;;;8.30;6.72;;;;;;;10.15;100.00;101235.84;5264509;28;20039;-68
2022/05/25 03:00:22;;;;;;;7.30;5.47;;;;;;;10.16;100.00;101238.38;5267409;28;20017;-68
2022/05/25 03:02:56;;;;;;;10.43;6.05;;;;;;;10.15;100.00;101236.69;5265244;28;20082;-68
2022/05/25 03:05:27;;;;;;;7.63;5.28;;;;;;;10.14;100.00;101240.25;5265825;28;20033;-68
2022/05/25 03:07:58;;;;;;;6.95;5.80;;;;;;;10.14;100.00;101234.19;5259906;28;20039;-68
2022/05/25 03:10:30;;;;;;;6.82;4.95;;;;;;;10.14;100.00;101237.63;5264539;28;20067;-68
2022/05/25 03:13:04;;;;;;;7.93;5.35;;;;;;;10.09;100.00;101228.47;5265194;28;20496;-68
2022/05/25 03:15:36;;;;;;;8.27;5.40;;;;;;;10.08;100.00;101250.38;5262950;28;20382;-68
2022/05/25 03:18:07;;;;;;;7.03;5.75;;;;;;;10.07;100.00;101246.06;5264989;28;20478;-68
2022/05/25 03:20:39;;;;;;;7.10;5.40;;;;;;;10.05;100.00;101242.75;5266309;28;20025;-68
2022/05/25 03:23:10;;;;;;;7.30;5.53;;;;;;;10.06;100.00;101247.03;5262320;28;20031;-68
2022/05/25 03:25:41;;;;;;;7.72;5.25;;;;;;;10.05;100.00;101245.38;5263574;28;20082;-68
2022/05/25 03:28:14;;;;;;;6.75;5.18;;;;;;;10.03;100.00;101252.50;5265225;28;20488;-68
2022/05/25 03:30:46;;;;;;;6.75;5.47;;;;;;;10.05;100.00;101248.81;5264836;28;20080;-68
2022/05/25 03:33:17;;;;;;;10.40;5.97;;;;;;;10.02;100.00;101245.59;5267244;28;20062;-68
2022/05/25 03:35:48;;;;;;;5.78;5.10;;;;;;;9.97;100.00;101251.19;5265473;28;20036;-68
2022/05/25 03:38:20;;;;;;;7.43;5.32;;;;;;;10.04;100.00;101259.38;5265807;28;20032;-68
2022/05/25 03:40:51;;;;;;;7.40;5.50;;;;;;;9.99;100.00;101257.97;5263686;28;20031;-68
2022/05/25 03:43:29;;;;;;;6.97;5.30;;;;;;;10.00;100.00;101266.66;5265051;28;20029;-68
2022/05/25 03:46:00;;;;;;;6.70;5.60;;;;;;;9.95;100.00;101268.78;5264565;28;20028;-68
2022/05/25 03:48:31;;;;;;;9.52;5.00;;;;;;;9.97;100.00;101267.72;5266207;28;20028;-68
2022/05/25 03:51:03;;;;;;;6.85;5.38;;;;;;;9.96;100.00;101270.44;5263819;28;20485;-68
2022/05/25 03:53:34;;;;;;;8.75;5.80;;;;;;;9.95;100.00;101274.84;5270168;28;20399;-68
2022/05/25 03:56:05;;;;;;;10.65;5.30;;;;;;;9.94;100.00;101273.19;5270316;28;20073;-68
2022/05/25 03:58:37;;;;;;;6.88;4.78;;;;;;;9.94;100.00;101278.41;5266396;28;20033;-68
2022/05/25 04:01:08;;;;;;;7.43;5.35;;;;;;;9.95;100.00;101284.47;5267469;28;20060;-68
2022/05/25 04:03:39;;;;;;;8.48;5.60;;;;;;;9.93;100.00;101284.63;5268488;28;20237;-68
2022/05/25 04:06:11;;;;;;;6.80;5.10;;;;;;;9.94;100.00;101288.06;5267136;28;20107;-68
2022/05/25 04:08:42;;;;;;;8.32;5.07;;;;;;;9.95;100.00;101290.56;5268025;28;20108;-68
2022/05/25 04:11:13;;;;;;;7.72;5.32;;;;;;;9.95;100.00;101284.47;5267731;28;20017;-68
2022/05/25 04:13:45;;;;;;;7.25;5.18;;;;;;;9.96;100.00;101288.75;5268701;28;20033;-68
2022/05/25 04:16:16;;;;;;;7.32;5.20;;;;;;;9.91;100.00;101286.50;5266675;28;20135;-68
2022/05/25 04:18:47;;;;;;;7.57;4.88;;;;;;;9.93;100.00;101291.63;5271242;28;20032;-68
2022/05/25 04:21:18;;;;;;;7.95;5.25;;;;;;;9.90;100.00;101289.25;5269076;28;20021;-68
2022/05/25 04:23:50;;;;;;;8.95;5.22;;;;;;;9.96;100.00;101291.38;5268178;28;20489;-68
2022/05/25 04:26:22;;;;;;;7.28;5.45;;;;;;;9.95;100.00;101294.97;5269279;28;20079;-68
2022/05/25 04:28:53;;;;;;;9.50;5.00;;;;;;;9.98;100.00;101287.72;5269599;28;20036;-68
2022/05/25 04:31:24;;;;;;;9.15;5.28;;;;;;;10.00;100.00;101300.69;5267007;28;20044;-68
2022/05/25 04:33:56;;;;;;;11.18;5.55;;;;;;;10.06;100.00;101288.91;5270273;28;20466;-68
2022/05/25 04:36:27;;;;;;;8.52;5.03;;;;;;;10.07;100.00;101295.81;5266772;28;20142;-68
2022/05/25 04:38:59;;;;;;;7.05;4.85;;;;;;;10.10;100.00;101296.41;5270730;28;20055;-68
2022/05/25 04:41:30;;;;;;;7.80;5.35;;;;;;;10.15;100.00;101294.31;5269715;28;20086;-68
2022/05/25 04:44:03;;;;;;;9.48;5.13;;;;;;;10.16;100.00;101295.13;5265672;28;20492;-68
2022/05/25 04:46:34;;;;;;;9.10;5.18;;;;;;;10.19;100.00;101298.34;5269879;28;20389;-68
2022/05/25 04:49:06;;;;;;;6.70;4.65;;;;;;;10.21;100.00;101301.69;5266372;28;20025;-68
2022/05/25 04:51:38;;;;;;;9.05;4.90;;;;;;;10.23;100.00;101305.03;5266589;28;20029;-68
2022/05/25 04:54:09;;;;;;;7.65;5.55;;;;;;;10.28;100.00;101304.69;5267926;28;20025;-68
2022/05/25 04:59:30;;;;;;;7.18;4.82;;;;;;;10.38;100.00;101305.69;5266459;28;20503;-68
2022/05/25 05:02:02;;;;;;;7.13;4.60;;;;;;;10.41;100.00;101310.66;5266729;28;20033;-69
2022/05/25 05:04:33;;;;;;;7.38;4.95;;;;;;;10.48;100.00;101313.66;5265733;28;20591;-68
2022/05/25 05:07:05;;;;;;;8.98;4.82;;;;;;;10.56;100.00;101323.53;5265762;28;20025;-68
2022/05/25 05:09:38;;;;;;;6.57;4.70;;;;;;;10.56;100.00;101311.25;5266521;28;20025;-68
2022/05/25 05:12:11;;;;;;;8.93;4.82;;;;;;;10.63;100.00;101317.69;5266781;28;20024;-68
2022/05/25 05:14:44;;;;;;;7.90;5.25;;;;;;;10.74;100.00;101310.81;5266748;28;20037;-68
2022/05/25 05:17:15;;;;;;;11.60;5.82;;;;;;;10.79;100.00;101317.34;5266379;28;20374;-68
2022/05/25 05:19:47;;;;;;;9.23;4.78;;;;;;;10.83;100.00;101313.53;5267488;28;20024;-68
2022/05/25 05:22:18;;;;;;;8.88;5.22;;;;;;;10.85;100.00;101310.78;5258956;28;20454;-68
2022/05/25 05:24:49;;;;;;;14.23;5.03;;;;;;;10.88;100.00;101300.06;5265758;28;20028;-68
2022/05/25 05:27:21;;;;;;;7.05;4.43;;;;;;;10.93;100.00;101301.38;5265998;28;20454;-68
2022/05/25 05:29:52;;;;;;;7.82;5.35;;;;;;;10.98;100.00;101300.16;5263551;28;20575;-68
2022/05/25 05:32:25;;;;;;;8.68;4.50;;;;;;;11.06;100.00;101303.88;5274628;28;20491;-68
2022/05/25 05:34:58;;;;;;;8.45;5.03;;;;;;;11.08;100.00;101303.75;5267642;28;20452;-68
2022/05/25 05:37:35;;;;;;;9.02;5.25;;;;;;;11.22;100.00;101297.41;5266767;28;20033;-68
2022/05/25 05:40:11;;;;;;;7.88;5.07;;;;;;;11.27;100.00;101300.47;5265586;28;20032;-69
2022/05/25 05:42:52;;;;;;;10.07;5.35;;;;;;;11.35;100.00;101296.28;5261464;28;20056;-68
2022/05/25 05:51:34;;;;;;;15.75;5.85;;;;;;;11.53;100.00;101296.56;6043205;22;20058;-68
2022/05/25 05:54:06;;;;;;;8.70;5.28;;;;;;;11.59;100.00;101296.09;5206785;28;20479;-68
2022/05/25 05:56:44;;;;;;;9.07;5.38;;;;;;;11.76;100.00;101297.31;5221110;28;20034;-67
2022/05/25 05:59:15;;;;;;;7.90;4.80;;;;;;;11.77;100.00;101298.97;5230278;28;20041;-68
2022/05/25 06:01:47;;;;;;;11.00;6.07;;;;;;;11.89;100.00;101300.63;5215467;28;20374;-69
2022/05/25 06:04:19;;;;;;;10.27;5.82;;;;;;;11.93;100.00;101294.16;5228627;28;20113;-68
2022/05/25 06:06:50;;;;;;;10.98;5.60;;;;;;;12.07;100.00;101306.13;5225657;28;20037;-69
2022/05/25 06:09:21;;;;;;;7.43;5.43;;;;;;;12.11;100.00;101307.53;5230146;28;20029;-68
2022/05/25 06:11:53;;;;;;;7.10;5.20;;;;;;;12.20;100.00;101310.34;5227337;28;20122;-68
2022/05/25 06:14:24;;;;;;;8.57;5.38;;;;;;;12.31;100.00;101320.78;5230405;28;20052;-69
2022/05/25 06:19:45;;;;;;;10.43;5.43;;;;;;;12.57;100.00;101326.44;5230898;28;20406;-69
2022/05/25 06:22:18;;;;;;;11.13;5.88;;;;;;;12.66;100.00;101326.50;5232309;28;20041;-70
2022/05/25 06:24:51;;;;;;;10.85;5.70;;;;;;;12.84;100.00;101334.59;5230642;28;20398;-70
2022/05/25 06:27:23;;;;;;;9.90;5.95;;;;;;;13.01;100.00;101333.13;5228977;28;20045;-70
2022/05/25 06:29:55;;;;;;;10.27;5.75;;;;;;;13.13;100.00;101336.47;5230933;28;20038;-70
2022/05/25 06:32:27;;;;;;;10.38;6.35;;;;;;;13.22;100.00;101333.06;5232787;28;20092;-70
2022/05/25 06:34:58;;;;;;;7.43;5.25;;;;;;;13.34;100.00;101337.25;5233407;28;20061;-70
2022/05/25 06:37:30;;;;;;;9.88;6.60;;;;;;;13.31;100.00;101348.06;5230819;28;20125;-70
2022/05/25 06:40:02;;;;;;;10.88;7.45;;;;;;;13.34;100.00;101350.41;5228295;28;20040;-70
2022/05/25 06:42:36;;;;;;;13.52;7.68;;;;;;;13.44;100.00;101349.59;5230007;28;20037;-70
2022/05/25 06:45:09;;;;;;;9.70;8.55;;;;;;;13.35;100.00;101341.53;5231852;28;20026;-70
2022/05/25 06:47:41;;;;;;;15.45;10.77;;;;;;;13.41;100.00;101344.59;5232758;28;20048;-70
2022/05/25 06:50:13;;;;;;;14.63;9.80;;;;;;;13.51;100.00;101354.19;5231844;28;20037;-70
2022/05/25 06:52:45;;;;;;;15.52;9.60;;;;;;;13.59;100.00;101353.50;5230761;28;20061;-70
2022/05/25 06:55:19;;;;;;;12.10;8.32;;;;;;;13.71;100.00;101357.66;5230982;28;20051;-70
2022/05/25 06:57:52;;;;;;;14.00;8.15;;;;;;;13.73;100.00;101360.16;5232671;28;20061;-70
2022/05/25 07:00:23;;;;;;;11.43;8.83;;;;;;;13.83;100.00;101363.63;5232453;28;20031;-70
2022/05/25 07:02:54;;;;;;;12.65;8.27;;;;;;;13.78;100.00;101363.19;5230831;28;20453;-70
2022/05/25 07:05:25;;;;;;;9.98;7.18;;;;;;;13.95;100.00;101365.16;5230622;28;20028;-70
2022/05/25 07:07:57;;;;;;;11.02;7.93;;;;;;;13.95;100.00;101366.97;5232845;28;20044;-70
2022/05/25 07:10:28;;;;;;;12.32;7.57;;;;;;;14.03;100.00;101372.34;5233437;28;20025;-70
2022/05/25 07:12:59;;;;;;;10.35;7.32;;;;;;;14.29;100.00;101364.72;5230866;28;20112;-70
2022/05/25 07:15:31;;;;;;;10.95;7.43;;;;;;;14.30;100.00;101377.72;5229523;28;20096;-70
2022/05/25 07:18:02;;;;;;;12.50;8.40;;;;;;;14.30;100.00;101377.72;5231934;28;20041;-70
2022/05/25 07:20:34;;;;;;;11.30;7.75;;;;;;;14.34;100.00;101383.56;5229033;28;20295;-70
2022/05/25 07:23:05;;;;;;;13.60;7.90;;;;;;;14.33;100.00;101384.53;5231144;28;20402;-70
2022/05/25 07:25:37;;;;;;;9.10;7.53;;;;;;;14.41;100.00;101386.47;5231973;28;20034;-71
2022/05/25 07:28:08;;;;;;;13.50;8.23;;;;;;;14.39;100.00;101377.84;5231019;28;20556;-70
2022/05/25 07:30:39;;;;;;;9.52;7.85;;;;;;;14.46;100.00;101386.84;5221832;28;20396;-70
2022/05/25 07:33:11;;;;;;;10.95;7.60;;;;;;;14.60;100.00;101387.28;5225646;28;20112;-70
2022/05/25 07:35:42;;;;;;;10.43;7.38;;;;;;;14.71;100.00;101388.09;5214007;28;20034;-70
2022/05/25 07:38:14;;;;;;;10.68;7.70;;;;;;;14.86;100.00;101391.09;5231382;28;20049;-70
2022/05/25 07:40:46;;;;;;;9.63;7.18;;;;;;;15.07;100.00;101392.50;5229053;28;20544;-70
2022/05/25 07:43:21;;;;;;;9.07;6.60;;;;;;;15.33;100.00;101384.72;5231857;28;20361;-71
2022/05/25 07:45:53;;;;;;;10.32;6.57;;;;;;;15.58;100.00;101387.66;5232616;28;20039;-71
2022/05/25 07:48:25;;;;;;;8.48;5.60;;;;;;;15.87;100.00;101386.63;5232507;28;20033;-71
2022/05/25 07:50:57;;;;;;;7.57;5.50;;;;;;;15.92;100.00;101392.31;5232091;28;20037;-71
2022/05/25 07:56:18;;;;;;;9.75;5.03;;;;;;;15.98;100.00;101399.59;5231227;28;20490;-70
2022/05/25 07:58:49;;;;;;;11.50;5.25;;;;;;;15.89;100.00;101392.59;5233012;28;20025;-70
2022/05/25 08:05:43;;;;;;;7.07;4.40;;;;;;;15.97;100.00;101404.06;5229195;28;20345;-70
2022/05/25 08:07:09;;;;;;;7.32;3.83;;;;;;;16.33;100.00;101395.25;5232751;28;20073;-70
2022/05/25 08:09:41;;;;;;;8.77;4.13;;;;;;;16.62;100.00;101401.09;5231064;28;20033;-70
2022/05/25 08:12:13;;;;;;;6.38;3.97;;;;;;;16.76;100.00;101397.06;5229664;28;20038;-70
2022/05/25 08:14:44;;;;;;;6.25;4.00;;;;;;;16.91;100.00;101402.63;5231529;28;20033;-71
2022/05/25 08:17:15;;;;;;;8.73;3.63;;;;;;;17.04;100.00;101397.69;5227038;28;20037;-70
2022/05/25 08:19:46;;;;;;;5.57;3.63;;;;;;;17.02;100.00;101397.88;5230953;28;20021;-70
2022/05/25 08:22:18;;;;;;;10.90;3.70;;;;;;;17.00;100.00;101401.66;5231014;28;20474;-71
2022/05/25 08:24:49;;;;;;;7.90;3.35;;;;;;;16.98;100.00;101395.69;5229477;28;20097;-70
2022/05/25 08:27:20;;;;;;;4.28;2.60;;;;;;;16.93;100.00;101400.63;5223050;28;20032;-71
2022/05/25 08:29:52;;;;;;;5.40;3.30;;;;;;;17.11;100.00;101396.06;5225892;28;20029;-70
2022/05/25 08:32:23;;;;;;;6.78;3.38;;;;;;;17.43;100.00;101392.72;5218939;28;20025;-71
2022/05/25 08:34:54;;;;;;;6.70;3.47;;;;;;;17.48;100.00;101395.72;5224356;28;20083;-71
2022/05/25 08:37:26;;;;;;;5.40;2.88;;;;;;;17.66;100.00;101389.47;5220099;28;20026;-71
2022/05/25 08:39:57;;;;;;;6.95;3.28;;;;;;;17.78;100.00;101388.19;5227517;28;20570;-70
2022/05/25 08:42:33;;;;;;;4.93;3.08;;;;;;;17.77;100.00;101383.88;5226462;28;20026;-71
2022/05/25 08:45:05;;;;;;;3.92;2.70;;;;;;;18.06;100.00;101383.38;5217309;28;20034;-71
2022/05/25 08:47:44;;;;;;;8.70;2.90;;;;;;;18.21;100.00;101384.38;5217247;28;20501;-71
2022/05/25 08:50:16;;;;;;;5.43;2.50;;;;;;;18.10;100.00;101382.03;5218595;28;20091;-70
2022/05/25 08:52:48;;;;;;;4.50;2.60;;;;;;;17.97;100.00;101379.91;5224106;28;20045;-70
2022/05/25 08:55:58;;;;;;;7.00;2.67;;;;;;;18.41;100.00;101381.34;5229536;28;20033;-70
2022/05/25 08:58:38;;;;;;;5.13;2.60;;;;;;;18.37;100.00;101383.53;5230527;28;20279;-70
2022/05/25 09:01:14;;;;;;;4.88;2.28;;;;;;;18.40;100.00;101383.19;5230823;28;20041;-70
2022/05/25 09:03:54;;;;;;;5.45;1.75;;;;;;;18.36;100.00;101371.25;5227720;28;20029;-70
2022/05/25 09:06:41;;;;;;;4.80;2.13;;;;;;;18.45;100.00;101380.88;5230639;28;20041;-70
2022/05/25 09:09:43;;;;;;;6.45;2.20;;;;;;;18.76;100.00;101387.31;5231203;28;20029;-70
2022/05/25 09:12:25;;;;;;;4.47;2.00;;;;;;;18.96;100.00;101391.22;5225927;28;20072;-70
2022/05/25 09:15:02;;;;;;;4.50;1.88;;;;;;;19.00;100.00;101379.25;5217391;28;20048;-70
2022/05/25 09:17:46;;;;;;;5.28;1.83;;;;;;;18.84;100.00;101395.25;5235082;28;20045;-70
2022/05/25 09:20:23;;;;;;;2.60;1.30;;;;;;;18.68;100.00;101399.56;5231377;28;20050;-70
2022/05/25 09:22:57;;;;;;;3.20;1.30;;;;;;;18.62;100.00;101399.41;5234816;28;20037;-70
2022/05/25 09:25:30;;;;;;;3.85;1.02;;;;;;;18.60;100.00;101398.72;5233918;28;20017;-70
2022/05/25 09:28:30;;;;;;;3.38;0.98;;;;;;;18.71;100.00;101404.56;5235172;28;20036;-70
2022/05/25 09:31:03;;;;;;;3.85;1.00;;;;;;;18.32;100.00;101406.25;5231426;28;20052;-70
2022/05/25 09:33:40;;;;;;;6.07;1.33;;;;;;;18.35;100.00;101406.75;5234545;28;20048;-70
2022/05/25 09:36:38;;;;;;;4.82;1.20;;;;;;;18.36;100.00;101412.88;5234051;28;20041;-70
2022/05/25 09:39:26;;;;;;;3.20;1.00;;;;;;;18.20;100.00;101414.53;5229274;28;20025;-70
2022/05/25 09:41:59;;;;;;;4.05;1.20;;;;;;;18.33;100.00;101406.06;5235570;28;20030;-71
2022/05/25 09:44:32;;;;;;;2.80;0.80;;;;;;;18.74;100.00;101402.56;5235265;28;20284;-70
2022/05/25 09:47:06;;;;;;;3.05;1.00;;;;;;;19.22;100.00;101408.72;5232966;28;20037;-70
2022/05/25 09:49:44;;;;;;;2.30;0.95;;;;;;;19.50;100.00;101404.56;5231921;28;20044;-71
2022/05/25 09:52:48;;;;;;;2.92;0.85;;;;;;;19.61;100.00;101414.78;5233823;28;20049;-70
2022/05/25 09:55:29;;;;;;;3.88;0.88;;;;;;;19.32;100.00;101410.16;5230606;28;20055;-71
2022/05/25 09:58:11;;;;;;;5.32;1.35;;;;;;;19.33;100.00;101418.94;5232174;28;20033;-71
2022/05/25 10:00:59;;;;;;;2.88;0.90;;;;;;;19.33;100.00;101418.94;5227761;28;20104;-70
2022/05/25 10:03:43;;;;;;;4.10;0.73;;;;;;;19.15;100.00;101420.00;5228735;28;20033;-71
2022/05/25 10:06:20;;;;;;;3.15;1.00;;;;;;;19.09;100.00;101418.06;5227153;28;20040;-70
2022/05/25 10:09:11;;;;;;;3.70;0.98;;;;;;;19.31;100.00;101418.28;5227724;28;20037;-70
2022/05/25 10:11:48;;;;;;;4.13;1.10;;;;;;;19.07;100.00;101428.00;5222373;28;20033;-70
2022/05/25 10:14:32;;;;;;;3.15;1.10;;;;;;;18.97;100.00;101422.06;5228779;28;20868;-70
2022/05/25 10:17:14;;;;;;;2.08;0.82;;;;;;;19.26;100.00;101418.81;5229811;28;20037;-71
2022/05/25 10:19:54;;;;;;;4.10;1.15;;;;;;;19.49;100.00;101415.38;5229503;28;20079;-70
2022/05/25 10:22:31;;;;;;;2.28;0.82;;;;;;;19.27;100.00;101416.97;5228405;28;20032;-70
2022/05/25 10:25:08;;;;;;;3.20;0.70;;;;;;;19.16;100.00;101428.81;5228139;28;20367;-71
2022/05/25 10:27:43;;;;;;;2.53;0.63;;;;;;;19.20;100.00;101422.16;5226417;28;20084;-69
2022/05/25 10:39:14;;;;;;;5.00;0.80;;;;;;;19.03;100.00;101401.97;5225852;28;20211;-70
2022/05/25 10:42:12;;;;;;;2.03;0.80;;;;;;;18.94;100.00;101409.13;5224535;28;20052;-69
2022/05/25 10:45:10;;;;;;;2.65;0.70;;;;;;;18.87;100.00;101416.97;5230112;28;20703;-70
2022/05/25 10:47:57;;;;;;;3.55;0.70;;;;;;;18.71;100.00;101407.22;5233205;28;20104;-70
2022/05/25 10:50:32;;;;;;;3.22;0.65;;;;;;;18.68;100.00;101417.31;5232371;28;20087;-69
2022/05/25 10:53:43;;;;;;;3.03;0.75;;;;;;;19.33;100.00;101403.00;5227687;28;20034;-70
2022/05/25 10:56:24;;;;;;;1.83;0.60;;;;;;;19.30;100.00;101408.66;5222392;28;20049;-70
2022/05/25 10:59:40;;;;;;;4.00;0.80;;;;;;;19.05;96.81;101408.75;5217954;28;20033;-70
2022/05/25 11:02:57;;;;;;;2.78;0.75;;;;;;;18.85;98.82;101408.34;5213354;28;20045;-70
2022/05/25 11:05:54;;;;;;;2.80;1.00;;;;;;;18.89;98.86;101407.00;5231552;28;20107;-70
2022/05/25 11:08:34;;;;;;;2.55;0.80;;;;;;;18.66;98.61;101408.69;5231981;28;20030;-70
2022/05/25 11:11:15;;;;;;;3.22;0.73;;;;;;;19.03;100.00;101410.78;5232363;28;20036;-70
2022/05/25 11:14:10;;;;;;;2.25;0.70;;;;;;;19.58;97.72;101416.97;5231081;28;20041;-70
2022/05/25 11:16:55;;;;;;;3.15;0.80;;;;;;;19.58;93.85;101404.50;5229991;28;20032;-70
2022/05/25 11:19:44;;;;;;;3.85;0.85;;;;;;;19.61;93.36;101406.00;5233300;28;20128;-70
2022/05/25 11:22:24;;;;;;;3.50;1.20;;;;;;;19.58;94.22;101401.84;5233417;28;20041;-70
2022/05/25 11:25:17;;;;;;;3.75;0.98;;;;;;;20.16;94.08;101399.66;5232004;28;20063;-70
2022/05/25 11:27:54;;;;;;;5.53;1.08;;;;;;;20.34;75.41;101384.19;5233134;28;20044;-70
2022/05/25 11:30:33;;;;;;;6.65;0.98;;;;;;;20.72;75.38;101392.16;5231008;28;20040;-70
2022/05/25 11:33:27;;;;;;;8.80;1.10;;;;;;;20.95;66.29;101391.19;5233365;28;20029;-69
2022/05/25 11:36:42;;;;;;;2.53;0.63;;;;;;;21.03;56.94;101386.63;5231492;28;20041;-70
2022/05/25 11:39:41;;;;;;;4.88;0.98;;;;;;;20.99;53.51;101390.66;5233146;28;20022;-70
2022/05/25 11:42:29;;;;;;;3.95;0.80;;;;;;;20.87;51.31;101377.00;5231833;28;20105;-70
2022/05/25 11:45:21;;;;;;;3.17;0.70;;;;;;;21.14;51.99;101380.00;5233764;28;20026;-70
2022/05/25 11:48:34;;;;;;;3.92;1.00;;;;;;;20.93;51.33;101375.41;5230703;28;20029;-70
2022/05/25 11:51:25;;;;;;;2.90;0.90;;;;;;;20.86;51.76;101377.97;5205488;28;20514;-70
2022/05/25 11:54:26;;;;;;;3.90;0.93;;;;;;;21.01;51.75;101372.66;5233096;28;20041;-71
2022/05/25 11:57:12;;;;;;;4.05;1.05;;;;;;;20.72;50.34;101378.84;5233756;28;20061;-70
2022/05/25 12:00:04;;;;;;;2.30;0.77;;;;;;;20.82;49.82;101386.53;5230087;28;20052;-71
2022/05/25 12:03:12;;;;;;;1.52;0.73;;;;;;;20.69;50.17;101383.69;5232396;28;20037;-70
2022/05/25 12:06:14;;;;;;;4.15;1.08;;;;;;;20.75;49.57;101383.78;5232659;28;20029;-71
2022/05/25 12:09:01;;;;;;;2.58;0.73;;;;;;;21.09;49.43;101385.03;5232726;28;20033;-70
2022/05/25 12:12:01;;;;;;;6.03;0.98;;;;;;;21.25;48.49;101373.34;5231603;28;20108;-70
2022/05/25 12:14:44;;;;;;;2.75;1.00;;;;;;;21.14;48.01;101382.66;5183001;28;20509;-70
2022/05/25 12:17:49;;;;;;;3.65;0.90;;;;;;;20.75;47.19;101372.31;5237918;28;20045;-70
2022/05/25 12:20:28;;;;;;;2.25;0.70;;;;;;;20.39;47.18;101387.13;5233775;28;20091;-69
2022/05/25 12:23:12;;;;;;;3.20;0.80;;;;;;;19.96;45.66;101393.97;5232317;28;20013;-69
2022/05/25 12:25:52;;;;;;;4.65;0.80;;;;;;;19.71;47.56;101382.72;5236517;28;20022;-69
2022/05/25 12:28:29;;;;;;;2.83;0.80;;;;;;;19.56;48.38;101392.41;5235605;28;20040;-70
2022/05/25 12:31:05;;;;;;;9.10;1.60;;;;;;;19.54;49.43;101397.88;5233514;28;20228;-69
2022/05/25 12:33:37;;;;;;;3.53;0.90;;;;;;;19.66;49.70;101403.66;5233701;28;20436;-69